AirNav   Air Wisconsin pilot careers
 
 462 users online  

57FL Lake Keystone Seaplane Base
Odessa, Florida, USA

GOING TO ODESSA?


FAA INFORMATION EFFECTIVE 24 MAY 2018

Location

FAA Identifier: 57FL
Lat/Long: 28-08-09.4000N / 082-35-38.3100W
28-08.156667N / 082-35.638500W
28.1359444 / -82.5939750
(estimated)
Elevation: 42 ft. / 13 m (estimated)
From city: 3 miles SSW of ODESSA, FL
Time zone: UTC -4 (UTC -5 during Standard Time)
Zip code: 33556

Seaplane Base Operations

Seaplane Base use: Private use. Permission required prior to landing
Activation date: 09/2014
Control tower: no
ARTCC: MIAMI CENTER
FSS: SAINT PETERSBURG FLIGHT SERVICE STATION
Attendance: UNATNDD
Wind indicator: yes
Segmented circle: no

Seaplane Base Communications

WX ASOS at TPA (10 nm S): PHONE 813-873-7228
WX AWOS-3P at CLW (13 nm SW): 119.225 (727-449-2184)
WX ASOS at PIE (14 nm S): PHONE 727-531-3456
WX AWOS-3 at VDF (15 nm SE): 121.125 (813-630-0924)
WX AWOS-3 at TPF (15 nm SE): 118.925 (813-251-6824)

Nearby radio navigation aids

VOR radial/distance  VOR name  Freq  Var
PIEr024/14.5ST PETERSBURG VORTAC116.4005W
LALr285/32.0LAKELAND VORTAC116.0001E

 
NDB name  Hdg/Dist  Freq  Var  ID
COSME315/4.736805WTP - .--.
CAPOK040/10.336005WPI .--. ..

Seaplane Base Services

Runway Information

Runway 14/32

Dimensions: 2500 x 200 ft. / 762 x 61 m
Surface: water
RUNWAY 14  RUNWAY 32
Traffic pattern: leftleft

Seaplane Base Ownership and Management from official FAA records

Ownership: Privately-owned
Owner: KEYSTONE SEAPLANE, LLC
8615 VIVIAN BASS WAY
ODESSA, FL 33556
Phone 813-416-5300
Manager: KEN LEONARD SR
10523 LAKE WILLIAMS
ODESSA, FL 33556
Phone 813-416-7744

Seaplane Base Operational Statistics

Aircraft based on the field: 1
Single engine airplanes: 1
    

Instrument Procedures

There are no published instrument procedures at 57FL.

Some nearby airports with instrument procedures:

KTPA - Tampa International Airport (10 nm S)
KCLW - Clearwater Air Park (13 nm SW)
KPIE - St Pete-Clearwater International Airport (14 nm S)
KVDF - Tampa Executive Airport (15 nm SE)
KTPF - Peter O Knight Airport (15 nm SE)
KMCF - MacDill Air Force Base (18 nm S)
 
Loc | Ops | Rwys | IFR | FBO | Links
Com | Nav | Svcs | Stats | Notes


 
Aerial photo
No photo
 
Airport distance calculator
Flying to Lake Keystone Seaplane Base? Find the distance to fly.

From to 57FL

Sunrise and sunset
Times for 25-May-2018
 Local
(UTC-4)
 Zulu
(UTC)
Morning civil twilight06:1110:11
Sunrise06:3710:37
Sunset20:1800:18
Evening civil twilight20:4400:44

Current date and time
Zulu (UTC)  25-May-2018 09:49:32
Local (UTC-4)  25-May-2018 05:49:32
 
METAR
KTPA 
11nm S 
250853Z VRB04KT 10SM FEW027 24/22 A3000 RMK AO2 SLP160 T02440222 56014
KCLW 
13nm SW 
250935Z AUTO 00000KT 10SM CLR 23/22 A3000 RMK AO2
KPIE 
14nm S 
250853Z AUTO 10005KT 10SM 24/24 A3000 RMK AO2 SLP157 6//// T02390239 $
KVDF 
15nm SE 
250935Z AUTO 00000KT 4SM BR CLR 21/21 A3001 RMK AO2
KTPF 
15nm SE 
250935Z AUTO 08005KT 10SM SCT110 A3001 RMK AO2
KMCF 
18nm S 
250856Z AUTO 09005KT 10SM FEW020 24/23 A3000 RMK AO2 SLP162 T02350226 56014 FZRANO $
KBKV 
21nm N 
250853Z AUTO 00000KT 9SM CLR 21/21 A3002 RMK AO2 SLP162 T02110206 56014
TAF
KTPA 
11nm S 
250528Z 2506/2612 VRB03KT P6SM FEW030 SCT250 FM251300 13006KT P6SM SCT030 BKN250 FM251800 17007KT P6SM VCTS SCT030CB BKN050 FM260200 13006KT P6SM FEW030 BKN250
KPIE 
14nm S 
250528Z 2506/2606 VRB04KT P6SM FEW030 SCT250 FM251300 12007KT P6SM SCT030 BKN250 FM251800 16007KT P6SM VCTS SCT030CB BKN050 FM260200 12007KT P6SM FEW030 BKN250
KMCF 
18nm S 
250800Z 2508/2614 07006KT 9999 BKN050 QNH2999INS BECMG 2515/2516 13006KT 8000 -SHRA OVC030 QNH2992INS TEMPO 2520/2523 13015G25KT 4800 -TSRA OVC020CB BECMG 2602/2603 14006KT 9999 NSW BKN015 QNH2990INS BECMG 2609/2610 09006KT 8000 -SHRA OVC008 QNH2991INS TX30/2521Z TN20/2512Z LAST NO AMDS AFT 2510 NEXT 2816
NOTAMs
Click for the latest NOTAMs
NOTAMs are issued by the DoD/FAA and will open in a separate window not controlled by AirNav.

 

 
 

Would you like to see your business listed on this page?

 If your business provides an interesting product or service to pilots, flight crews, aircraft, or users of the Lake Keystone Seaplane Base, you should consider listing it here.  To start the listing process, click on the button below
 
Add a business
 

Other Pages about Lake Keystone Seaplane Base

Update a link
 
Copyright © AirNav, LLC. All rights reserved. Privacy Policy  Contact